Time;durP1;ratioP1;P1;durP2;ratioP2;P2;SDS_P1;SDS_P2;PMS_P1;PMS_P2;Temp;Humidity;BMP_temperature;BMP_pressure;BME280_temperature;BME280_humidity;BME280_pressure;Samples;Min_cycle;Max_cycle;Signal;HPM_P1;HPM_P2
2023/03/11 05:28:54;;;;;;;2.13;0.40;;;8.80;52.30;;;;;;5367369;24;20066;-79
2023/03/11 05:31:20;;;;;;;4.45;0.43;;;8.90;51.80;;;;;;4824810;29;20542;-82
2023/03/11 05:33:46;;;;;;;11.20;0.70;;;9.00;51.80;;;;;;4823141;29;20050;-78
2023/03/11 05:36:11;;;;;;;9.68;1.17;;;9.20;53.20;;;;;;4821725;29;20042;-69
2023/03/11 05:38:38;;;;;;;9.80;0.77;;;9.40;53.10;;;;;;4823723;29;20053;-80
2023/03/11 05:41:05;;;;;;;17.40;1.08;;;9.60;53.40;;;;;;4825356;29;20513;-84
2023/03/11 05:43:30;;;;;;;10.18;0.77;;;9.90;53.60;;;;;;4825248;29;20163;-80
2023/03/11 05:45:56;;;;;;;6.40;0.70;;;10.10;53.90;;;;;;4824765;29;20129;-79
2023/03/11 05:48:22;;;;;;;11.43;1.35;;;10.30;54.30;;;;;;4825190;29;20053;-81
2023/03/11 05:50:48;;;;;;;16.77;1.55;;;10.50;54.60;;;;;;4824725;29;20051;-81
2023/03/11 05:53:13;;;;;;;18.17;1.55;;;10.70;55.00;;;;;;4833677;29;20526;-84
2023/03/11 05:55:39;;;;;;;17.90;2.05;;;10.90;55.60;;;;;;4809627;29;20043;-81
2023/03/11 05:58:05;;;;;;;9.30;1.00;;;11.00;56.00;;;;;;4794413;29;20461;-86
2023/03/11 06:00:45;;;;;;;20.77;1.50;;;11.10;56.20;;;;;;4806414;29;20047;-84
2023/03/11 06:03:11;;;;;;;21.80;2.65;;;11.30;56.70;;;;;;4807505;29;20355;-84
2023/03/11 06:05:52;;;;;;;13.27;1.65;;;11.40;57.10;;;;;;4809228;29;20058;-82
2023/03/11 06:08:19;;;;;;;22.17;2.03;;;11.60;56.90;;;;;;4825133;29;20126;-81
2023/03/11 06:10:45;;;;;;;15.73;1.30;;;11.70;56.70;;;;;;4826831;29;20057;-81
2023/03/11 06:13:11;;;;;;;12.68;0.95;;;11.80;56.80;;;;;;4827029;29;20138;-79
2023/03/11 06:15:37;;;;;;;8.15;1.20;;;12.00;57.00;;;;;;4827033;29;20062;-80
2023/03/11 06:18:03;;;;;;;16.63;1.85;;;12.00;56.80;;;;;;4825830;29;20111;-78
2023/03/11 06:20:30;;;;;;;12.48;2.03;;;12.10;56.70;;;;;;4828256;29;20089;-78
2023/03/11 06:22:56;;;;;;;16.40;1.63;;;12.30;56.80;;;;;;4825742;29;20070;-83
2023/03/11 06:25:22;;;;;;;15.30;1.63;;;12.30;57.00;;;;;;4817610;29;20046;-86
2023/03/11 06:27:50;;;;;;;15.25;1.60;;;12.50;57.30;;;;;;4796860;29;20144;-86
2023/03/11 06:30:16;;;;;;;15.55;2.28;;;12.50;57.00;;;;;;4825664;29;20131;-84
2023/03/11 06:32:44;;;;;;;11.70;1.80;;;12.60;57.00;;;;;;4823099;29;20129;-85
2023/03/11 06:35:10;;;;;;;14.32;2.25;;;12.60;57.30;;;;;;4812224;29;20050;-82
2023/03/11 06:37:36;;;;;;;13.05;1.95;;;12.60;57.50;;;;;;4800633;29;20370;-82
2023/03/11 06:40:04;;;;;;;15.32;2.40;;;12.70;57.50;;;;;;4804338;29;20446;-80
2023/03/11 06:42:36;;;;;;;14.48;1.88;;;12.80;57.50;;;;;;4827351;29;20065;-82
2023/03/11 06:45:01;;;;;;;14.65;1.40;;;12.90;58.20;;;;;;4812360;29;20046;-78
2023/03/11 06:47:27;;;;;;;17.48;1.88;;;12.90;56.60;;;;;;4827955;29;20500;-74
2023/03/11 06:49:53;;;;;;;16.67;2.30;;;13.00;56.30;;;;;;4828260;29;20039;-81
2023/03/11 06:52:19;;;;;;;13.27;1.42;;;13.00;56.70;;;;;;4811789;29;20053;-75
2023/03/11 06:54:46;;;;;;;12.40;2.10;;;13.10;56.70;;;;;;4827778;29;20046;-81
2023/03/11 06:57:15;;;;;;;19.13;2.20;;;13.10;56.50;;;;;;4827564;29;20442;-77
2023/03/11 06:59:40;;;;;;;15.25;2.15;;;13.20;55.50;;;;;;4808532;29;20049;-83
2023/03/11 07:02:11;;;;;;;15.52;1.63;;;13.20;54.80;;;;;;4823057;29;20047;-83
2023/03/11 07:04:36;;;;;;;21.73;1.90;;;13.20;54.60;;;;;;4823888;29;20051;-81
2023/03/11 07:07:02;;;;;;;16.77;2.58;;;13.20;54.50;;;;;;4811618;29;20050;-82
2023/03/11 07:09:28;;;;;;;13.35;1.83;;;13.20;54.40;;;;;;4826548;29;20051;-84
2023/03/11 07:11:54;;;;;;;13.35;1.98;;;13.20;54.30;;;;;;4826675;29;20146;-81
2023/03/11 07:14:20;;;;;;;13.40;1.52;;;13.20;54.30;;;;;;4826712;29;20542;-82
2023/03/11 07:16:46;;;;;;;9.25;0.93;;;13.20;54.20;;;;;;4826317;29;20043;-81
2023/03/11 07:19:12;;;;;;;11.75;1.05;;;13.20;54.20;;;;;;4812653;29;20035;-85
2023/03/11 07:21:38;;;;;;;8.32;1.15;;;13.30;54.20;;;;;;4810776;29;20046;-81
2023/03/11 07:24:05;;;;;;;14.05;1.45;;;13.30;54.00;;;;;;4826392;29;20150;-82
2023/03/11 07:26:32;;;;;;;8.60;1.48;;;13.30;54.00;;;;;;4827525;29;20111;-81
2023/03/11 07:28:58;;;;;;;13.98;1.90;;;13.30;53.90;;;;;;4811305;29;20046;-80
2023/03/11 07:31:27;;;;;;;9.95;1.38;;;13.40;53.90;;;;;;4826358;29;20219;-84
2023/03/11 07:33:53;;;;;;;6.18;1.08;;;13.30;53.80;;;;;;4810885;29;20435;-79
2023/03/11 07:36:21;;;;;;;15.70;1.52;;;13.40;53.80;;;;;;4826950;29;20157;-83
2023/03/11 07:38:48;;;;;;;7.40;0.50;;;13.40;53.60;;;;;;4823900;29;20054;-81
2023/03/11 07:41:15;;;;;;;5.03;0.70;;;13.50;53.70;;;;;;4811496;29;20058;-83
2023/03/11 07:43:42;;;;;;;5.38;0.80;;;13.50;53.50;;;;;;4804097;29;20470;-82
2023/03/11 07:46:15;;;;;;;7.90;1.13;;;13.50;53.50;;;;;;4826976;29;20043;-80
2023/03/11 07:48:41;;;;;;;10.30;0.80;;;13.60;53.30;;;;;;4825968;29;20421;-81
2023/03/11 07:51:17;;;;;;;3.47;0.77;;;13.50;53.30;;;;;;4827085;29;20335;-83
2023/03/11 07:53:43;;;;;;;2.10;0.52;;;13.60;53.30;;;;;;4827156;29;20054;-82
2023/03/11 07:56:10;;;;;;;5.75;1.05;;;13.60;53.30;;;;;;4826580;29;20382;-81
2023/03/11 07:58:37;;;;;;;3.88;0.50;;;13.60;53.20;;;;;;4825045;29;20442;-81
2023/03/11 08:01:10;;;;;;;2.50;0.35;;;13.60;53.10;;;;;;4826527;29;20054;-83
2023/03/11 08:03:36;;;;;;;3.55;0.30;;;13.60;53.00;;;;;;4826288;29;20474;-85
2023/03/11 08:06:10;;;;;;;2.83;0.70;;;13.60;53.00;;;;;;4815770;29;20057;-81
2023/03/11 08:08:35;;;;;;;4.50;0.65;;;13.70;53.10;;;;;;4826209;29;20366;-83
2023/03/11 08:11:02;;;;;;;5.70;0.73;;;13.70;53.00;;;;;;4810615;29;20050;-80
2023/03/11 08:13:34;;;;;;;6.93;0.63;;;13.70;53.00;;;;;;4826436;29;20050;-86
2023/03/11 08:16:04;;;;;;;3.85;0.22;;;13.80;52.90;;;;;;4826058;29;20046;-83
2023/03/11 08:18:31;;;;;;;4.35;0.75;;;13.80;53.00;;;;;;4804019;29;20130;-80
2023/03/11 08:21:30;;;;;;;6.45;0.65;;;13.80;53.00;;;;;;4825547;29;20485;-84
2023/03/11 08:24:00;;;;;;;10.35;0.85;;;13.90;53.60;;;;;;4803294;29;20050;-83
2023/03/11 08:27:29;;;;;;;11.35;1.30;;;14.00;53.70;;;;;;4823577;29;20043;-82
2023/03/11 08:29:57;;;;;;;14.73;1.58;;;13.90;54.00;;;;;;4819101;29;20055;-82
2023/03/11 08:32:48;;;;;;;8.77;1.33;;;13.90;54.10;;;;;;4825541;29;20118;-81
2023/03/11 08:35:14;;;;;;;11.32;1.50;;;14.00;54.40;;;;;;4736785;29;20056;-78
2023/03/11 08:37:43;;;;;;;13.48;1.85;;;14.10;54.80;;;;;;4810564;29;20513;-85
2023/03/11 08:40:12;;;;;;;11.68;1.70;;;14.10;55.00;;;;;;4794660;29;20462;-87
2023/03/11 08:42:47;;;;;;;12.90;1.65;;;14.10;55.00;;;;;;4806699;29;20058;-83
2023/03/11 08:45:57;;;;;;;;;;;;;;;;;;;;;
2023/03/11 08:48:39;;;;;;;16.52;1.95;;;14.10;55.50;;;;;;4792568;29;20058;-87
2023/03/11 08:51:10;;;;;;;17.65;1.45;;;14.10;56.10;;;;;;4824077;29;20042;-80
2023/03/11 08:53:41;;;;;;;24.98;2.38;;;14.20;56.40;;;;;;4809414;29;20522;-85
2023/03/11 08:56:10;;;;;;;14.25;2.47;;;14.20;56.50;;;;;;4809854;29;20102;-82
2023/03/11 09:02:43;;;;;;;10.15;1.27;;;14.20;56.30;;;;;;4773677;29;20441;-84
2023/03/11 09:05:21;;;;;;;16.17;2.15;;;14.20;56.30;;;;;;4802277;29;20458;-84
2023/03/11 09:07:50;;;;;;;13.73;1.23;;;14.10;58.80;;;;;;4803423;29;20110;-80
2023/03/11 09:10:26;;;;;;;16.00;2.25;;;14.10;59.30;;;;;;4825553;29;20054;-86
2023/03/11 09:12:52;;;;;;;9.40;1.60;;;14.20;59.80;;;;;;4809263;29;20436;-84
2023/03/11 09:15:18;;;;;;;10.45;1.30;;;14.20;59.80;;;;;;4809578;29;20136;-79
2023/03/11 09:17:46;;;;;;;10.50;1.35;;;14.20;59.90;;;;;;4808210;29;20051;-84
2023/03/11 09:20:13;;;;;;;11.75;1.55;;;14.20;59.90;;;;;;4822744;29;20120;-82
2023/03/11 09:22:39;;;;;;;9.32;1.63;;;14.30;60.10;;;;;;4821620;29;20069;-83
2023/03/11 09:25:05;;;;;;;10.27;1.40;;;14.30;60.30;;;;;;4809634;29;20086;-83
2023/03/11 09:27:31;;;;;;;9.95;1.45;;;14.40;59.90;;;;;;4808548;29;20042;-82
2023/03/11 09:29:57;;;;;;;9.57;1.38;;;14.40;59.50;;;;;;4818499;29;20063;-89
2023/03/11 09:32:25;;;;;;;7.68;0.82;;;14.40;59.40;;;;;;4824778;29;20439;-80
2023/03/11 09:34:54;;;;;;;6.05;0.80;;;14.40;59.20;;;;;;4803715;29;20104;-82
2023/03/11 09:37:20;;;;;;;5.47;0.85;;;14.50;57.00;;;;;;4819631;29;20074;-81
2023/03/11 09:39:45;;;;;;;7.72;1.05;;;14.40;56.50;;;;;;4814527;29;20172;-79
2023/03/11 09:42:41;;;;;;;8.20;0.90;;;14.40;56.40;;;;;;4816458;29;20038;-85
2023/03/11 09:45:21;;;;;;;7.53;0.80;;;14.30;56.90;;;;;;4831431;29;20054;-85
2023/03/11 09:48:15;;;;;;;7.85;0.82;;;14.30;57.70;;;;;;4824649;29;20085;-82
2023/03/11 09:51:17;;;;;;;6.88;0.75;;;14.30;57.70;;;;;;4819511;29;20051;-81
2023/03/11 09:53:45;;;;;;;4.82;0.63;;;14.30;57.90;;;;;;4817859;29;20058;-78
2023/03/11 09:56:16;;;;;;;2.95;0.80;;;14.40;59.00;;;;;;4804002;29;20061;-80
2023/03/11 09:58:51;;;;;;;6.40;1.02;;;14.40;57.90;;;;;;4806398;29;20121;-79
2023/03/11 10:01:23;;;;;;;9.07;1.05;;;14.30;59.00;;;;;;4824991;29;20372;-80
2023/03/11 10:04:15;;;;;;;3.17;0.90;;;14.40;59.60;;;;;;4822625;29;20146;-82
2023/03/11 10:06:46;;;;;;;8.48;1.00;;;14.40;57.80;;;;;;4827536;29;20369;-79
2023/03/11 10:09:20;;;;;;;4.82;1.15;;;14.30;57.60;;;;;;4827707;29;20050;-83
2023/03/11 10:12:15;;;;;;;4.78;0.73;;;14.30;56.90;;;;;;4811803;29;20085;-83
2023/03/11 10:14:50;;;;;;;;;;;14.30;57.00;;;;;;4827316;29;20419;-83
2023/03/11 10:17:46;;;;;;;5.88;0.93;;;14.20;56.20;;;;;;4823642;29;19920;-83
2023/03/11 10:20:38;;;;;;;2.67;0.90;;;14.20;58.60;;;;;;4826992;29;20066;-81
2023/03/11 10:23:26;;;;;;;9.30;1.65;;;14.20;56.80;;;;;;4811980;29;20054;-81
2023/03/11 10:26:09;;;;;;;7.85;0.82;;;14.20;56.50;;;;;;4827572;29;20058;-80
2023/03/11 10:28:47;;;;;;;5.43;0.60;;;14.20;56.60;;;;;;4827117;29;20094;-79
2023/03/11 10:31:25;;;;;;;6.88;1.15;;;14.30;56.40;;;;;;4827277;29;20138;-81
2023/03/11 10:33:58;;;;;;;6.22;0.65;;;14.30;56.20;;;;;;4827288;29;20076;-81
2023/03/11 10:36:53;;;;;;;5.47;0.90;;;14.40;56.20;;;;;;4828420;29;20346;-82
2023/03/11 10:39:21;;;;;;;12.18;1.23;;;14.40;56.90;;;;;;4807839;29;20149;-85
2023/03/11 10:41:55;;;;;;;9.77;1.65;;;14.50;56.20;;;;;;4827130;29;20052;-77
2023/03/11 10:55:29;;;;;;;8.57;1.13;;;14.80;55.90;;;;;;4756635;30;20051;-84
2023/03/11 10:58:12;;;;;;;5.18;0.70;;;14.80;55.90;;;;;;4757117;30;20121;-82
2023/03/11 11:04:36;;;;;;;9.07;0.93;;;14.80;55.80;;;;;;4771087;30;20117;-83
2023/03/11 11:07:31;;;;;;;9.05;1.10;;;14.90;56.50;;;;;;4805813;29;20057;-82
2023/03/11 11:10:22;;;;;;;6.13;0.85;;;14.90;56.20;;;;;;4834924;29;20090;-85
2023/03/11 11:12:53;;;;;;;9.10;0.82;;;14.90;55.10;;;;;;4821003;29;20378;-82
2023/03/11 11:15:24;;;;;;;6.80;1.00;;;14.90;54.50;;;;;;4831797;29;20057;-75
2023/03/11 11:17:54;;;;;;;7.05;0.95;;;14.90;54.10;;;;;;4804758;29;20043;-87
2023/03/11 11:21:02;;;;;;;4.50;0.77;;;14.90;53.70;;;;;;4806124;29;20129;-84
2023/03/11 11:23:52;;;;;;;4.53;1.00;;;15.00;53.80;;;;;;4810238;29;20054;-82
2023/03/11 11:26:26;;;;;;;5.82;0.80;;;15.00;53.80;;;;;;4808311;29;20115;-84
2023/03/11 11:29:13;;;;;;;;;;;15.10;52.80;;;;;;4815254;29;20049;-82
2023/03/11 11:32:11;;;;;;;6.47;1.08;;;15.20;52.60;;;;;;4820922;29;19992;-81
2023/03/11 11:34:37;;;;;;;7.88;1.05;;;15.30;53.20;;;;;;4808881;29;20450;-77
2023/03/11 11:37:30;;;;;;;19.33;1.10;;;15.30;53.60;;;;;;4815845;29;20085;-83
2023/03/11 11:40:38;;;;;;;11.15;1.38;;;15.40;54.20;;;;;;4823773;29;20068;-85
2023/03/11 11:43:12;;;;;;;8.65;0.85;;;15.50;54.70;;;;;;4807837;29;20123;-81
2023/03/11 11:49:31;;;;;;;9.75;1.15;;;15.50;55.50;;;;;;4808493;29;20107;-80
2023/03/11 11:52:07;;;;;;;6.78;0.80;;;15.60;55.80;;;;;;4807521;29;20050;-80
2023/03/11 11:55:53;;;;;;;4.07;0.70;;;15.60;55.90;;;;;;4818275;29;20055;-85
2023/03/11 11:58:29;;;;;;;9.52;1.05;;;15.60;55.30;;;;;;4822505;29;20055;-83
2023/03/11 12:05:09;;;;;;;8.65;0.98;;;15.60;56.40;;;;;;4825856;29;20435;-81
2023/03/11 12:07:47;;;;;;;7.88;1.42;;;15.60;56.70;;;;;;4821935;29;20462;-80
2023/03/11 12:10:13;;;;;;;14.15;1.70;;;15.70;56.80;;;;;;4811195;29;20090;-81
2023/03/11 12:12:49;;;;;;;12.02;1.80;;;15.70;56.80;;;;;;4807732;29;20085;-81
2023/03/11 12:15:32;;;;;;;8.10;2.00;;;15.70;57.00;;;;;;4826387;29;20371;-82
2023/03/11 12:18:09;;;;;;;19.63;2.38;;;15.70;57.00;;;;;;4826336;29;20411;-80
2023/03/11 12:20:53;;;;;;;7.32;1.13;;;15.80;57.00;;;;;;4810276;29;20042;-81
2023/03/11 12:23:42;;;;;;;4.88;1.00;;;15.90;57.00;;;;;;4809574;29;20050;-82
2023/03/11 12:26:22;;;;;;;8.85;1.13;;;15.90;56.90;;;;;;4801901;29;20069;-79
2023/03/11 12:29:03;;;;;;;6.50;0.90;;;15.90;56.90;;;;;;4801692;29;20047;-82
2023/03/11 12:31:33;;;;;;;15.75;1.52;;;15.90;57.00;;;;;;4819655;29;20142;-80
2023/03/11 12:34:11;;;;;;;7.38;1.17;;;16.00;57.20;;;;;;4817327;29;20061;-78
2023/03/11 12:36:42;;;;;;;8.18;1.27;;;15.90;57.30;;;;;;4814817;29;20046;-79
2023/03/11 12:39:28;;;;;;;10.32;1.70;;;16.00;57.40;;;;;;4801953;29;20050;-82
2023/03/11 12:42:09;;;;;;;13.23;1.65;;;16.00;57.60;;;;;;4807952;29;20057;-82
2023/03/11 12:45:15;;;;;;;7.07;1.27;;;16.10;57.40;;;;;;4823839;29;20054;-84
2023/03/11 12:51:59;;;;;;;7.47;1.25;;;16.10;57.40;;;;;;4798677;29;20042;-80
2023/03/11 12:54:30;;;;;;;8.85;0.85;;;16.10;57.30;;;;;;4808860;29;20050;-82
2023/03/11 12:57:00;;;;;;;14.35;2.15;;;16.10;57.20;;;;;;4825633;29;20038;-80
2023/03/11 12:59:56;;;;;;;9.88;1.15;;;16.10;57.10;;;;;;4824608;29;20041;-83
2023/03/11 13:02:49;;;;;;;15.85;1.00;;;16.10;57.00;;;;;;4809812;29;20050;-82
2023/03/11 13:05:36;;;;;;;6.93;0.90;;;16.00;56.90;;;;;;4825825;29;20092;-82
2023/03/11 13:08:11;;;;;;;7.45;1.08;;;16.00;56.70;;;;;;4825104;29;20054;-82
2023/03/11 13:10:48;;;;;;;11.23;1.30;;;16.00;56.70;;;;;;4809805;29;20057;-82
2023/03/11 13:13:31;;;;;;;15.13;1.33;;;16.10;56.30;;;;;;4807441;29;20054;-82
2023/03/11 13:16:12;;;;;;;19.95;2.47;;;16.10;56.50;;;;;;4821215;29;20087;-80
2023/03/11 13:18:43;;;;;;;10.93;1.50;;;16.10;56.90;;;;;;4823070;29;20068;-82
2023/03/11 13:21:37;;;;;;;16.65;1.30;;;16.10;56.90;;;;;;4828998;29;20077;-83
2023/03/11 13:24:21;;;;;;;;;;;16.10;56.80;;;;;;4833567;29;20049;-88
2023/03/11 13:26:59;;;;;;;12.80;1.55;;;16.10;56.50;;;;;;4826109;29;21530;-77
2023/03/11 13:29:31;;;;;;;13.43;1.48;;;16.20;56.30;;;;;;4822290;29;20057;-79
2023/03/11 13:31:59;;;;;;;11.52;2.17;;;16.20;55.70;;;;;;4823648;29;20462;-79
2023/03/11 13:34:43;;;;;;;9.55;1.08;;;16.20;55.60;;;;;;4820533;29;20076;-79
2023/03/11 13:37:16;;;;;;;10.93;2.08;;;16.20;55.40;;;;;;4821230;29;20047;-77
2023/03/11 13:39:53;;;;;;;8.07;0.70;;;16.20;55.60;;;;;;4811037;29;20054;-77
2023/03/11 13:42:41;;;;;;;5.72;1.05;;;16.30;55.00;;;;;;4811803;29;20348;-76
2023/03/11 13:45:34;;;;;;;4.47;0.30;;;16.30;53.80;;;;;;4822304;29;20043;-82
2023/03/11 13:48:35;;;;;;;5.85;0.35;;;16.20;51.30;;;;;;4828127;29;20501;-78
2023/03/11 13:51:06;;;;;;;8.15;0.65;;;16.20;49.50;;;;;;4829678;29;20058;-79
2023/03/11 13:53:43;;;;;;;3.47;0.32;;;16.20;49.20;;;;;;4825089;29;20416;-80
2023/03/11 13:56:27;;;;;;;3.97;0.40;;;16.20;49.40;;;;;;4803997;29;20051;-78
2023/03/11 13:58:53;;;;;;;1.85;0.38;;;16.30;49.80;;;;;;4817770;29;20046;-79
2023/03/11 14:01:20;;;;;;;2.17;0.20;;;16.40;50.20;;;;;;4827886;29;20054;-79
2023/03/11 14:03:47;;;;;;;2.28;0.47;;;16.40;50.50;;;;;;4825550;29;20183;-79
2023/03/11 14:06:18;;;;;;;3.22;0.32;;;16.40;50.70;;;;;;4821900;29;20488;-77
2023/03/11 14:08:53;;;;;;;3.10;0.30;;;16.50;51.00;;;;;;4824909;29;20125;-79
2023/03/11 14:11:19;;;;;;;1.85;0.40;;;16.40;51.30;;;;;;4821984;29;20050;-78
2023/03/11 14:13:48;;;;;;;4.85;1.02;;;16.50;51.60;;;;;;4805425;29;20484;-77
2023/03/11 14:16:45;;;;;;;6.43;1.27;;;16.50;51.70;;;;;;4791038;29;20455;-78
2023/03/11 14:19:18;;;;;;;4.38;0.60;;;16.40;51.90;;;;;;4808500;29;20053;-77
2023/03/11 14:21:45;;;;;;;5.30;0.50;;;16.40;52.40;;;;;;4812140;29;20042;-75
2023/03/11 14:24:28;;;;;;;5.13;0.60;;;16.40;52.80;;;;;;4828527;29;20497;-78
2023/03/11 14:26:56;;;;;;;5.22;1.10;;;16.30;53.00;;;;;;4828067;29;20125;-77
2023/03/11 14:29:39;;;;;;;10.82;0.80;;;16.40;53.30;;;;;;4827518;29;20046;-77
2023/03/11 14:32:34;;;;;;;7.25;0.70;;;16.40;53.60;;;;;;4826696;29;20443;-77
2023/03/11 14:34:59;;;;;;;7.85;0.90;;;16.40;54.20;;;;;;4819632;29;20066;-78
2023/03/11 14:37:28;;;;;;;16.88;1.92;;;16.40;54.40;;;;;;4827372;29;20510;-76
2023/03/11 14:39:54;;;;;;;9.85;1.20;;;16.30;58.10;;;;;;4828621;29;20053;-77
2023/03/11 14:42:35;;;;;;;13.10;0.90;;;16.30;57.10;;;;;;4827773;29;20370;-76
2023/03/11 14:45:14;;;;;;;4.38;0.75;;;16.30;56.20;;;;;;4824352;29;20512;-75
2023/03/11 14:47:52;;;;;;;6.82;0.70;;;16.30;55.60;;;;;;4820195;29;20144;-77
2023/03/11 14:50:21;;;;;;;12.88;1.33;;;16.30;55.80;;;;;;4811892;29;20093;-79
2023/03/11 14:52:58;;;;;;;10.32;0.70;;;16.30;55.30;;;;;;4811522;29;20058;-78
2023/03/11 14:55:50;;;;;;;8.88;0.93;;;16.30;55.10;;;;;;4826872;29;20087;-79
2023/03/11 14:58:42;;;;;;;6.20;0.80;;;16.30;55.00;;;;;;4797426;29;20125;-77
2023/03/11 15:01:30;;;;;;;9.93;0.93;;;16.30;54.90;;;;;;4796803;29;20091;-77
2023/03/11 15:04:06;;;;;;;7.82;0.52;;;16.40;54.70;;;;;;4811693;29;20093;-78
2023/03/11 15:06:33;;;;;;;8.00;1.00;;;16.40;54.60;;;;;;4828538;29;20514;-79
2023/03/11 15:09:18;;;;;;;3.05;0.60;;;16.40;54.50;;;;;;4827684;29;20054;-78
2023/03/11 15:11:53;;;;;;;4.15;0.32;;;16.40;54.30;;;;;;4811334;29;20443;-78
2023/03/11 15:14:32;;;;;;;3.00;0.32;;;16.40;54.20;;;;;;4811249;29;20497;-77
2023/03/11 15:17:29;;;;;;;3.35;0.50;;;16.40;54.00;;;;;;4827508;29;20070;-77
2023/03/11 15:19:55;;;;;;;1.88;0.40;;;16.40;54.00;;;;;;4804146;29;20066;-77
2023/03/11 15:22:23;;;;;;;5.10;0.60;;;16.50;53.90;;;;;;4827107;29;20458;-79
2023/03/11 15:24:58;;;;;;;5.72;0.75;;;16.40;54.40;;;;;;4827089;29;20046;-79
2023/03/11 15:27:30;;;;;;;2.70;0.60;;;16.40;53.70;;;;;;4826632;29;20062;-77
2023/03/11 15:29:57;;;;;;;2.45;0.30;;;16.40;53.70;;;;;;4815301;29;20073;-77
2023/03/11 15:32:28;;;;;;;2.70;0.30;;;16.40;53.70;;;;;;4808751;29;20516;-78
2023/03/11 15:35:06;;;;;;;5.65;0.65;;;16.50;53.70;;;;;;4809120;29;20143;-79
2023/03/11 15:37:32;;;;;;;3.80;0.28;;;16.50;53.70;;;;;;4777619;29;20126;-78
2023/03/11 15:40:11;;;;;;;4.80;0.73;;;16.50;53.60;;;;;;4808774;29;20043;-80
2023/03/11 15:42:37;;;;;;;1.77;0.20;;;16.50;53.60;;;;;;4808393;29;20050;-77
2023/03/11 15:45:17;;;;;;;3.95;0.47;;;16.50;53.60;;;;;;4808582;29;20046;-79
2023/03/11 15:47:45;;;;;;;2.30;0.40;;;16.50;53.60;;;;;;4808758;29;20042;-77
2023/03/11 15:50:26;;;;;;;2.90;0.30;;;16.50;53.60;;;;;;4808040;29;20447;-78
2023/03/11 15:52:55;;;;;;;2.03;0.10;;;16.50;54.20;;;;;;4808343;29;20086;-78
2023/03/11 15:55:21;;;;;;;2.38;0.30;;;16.50;53.60;;;;;;4793147;29;20386;-77
2023/03/11 15:57:49;;;;;;;1.20;0.40;;;16.40;53.60;;;;;;4808684;29;20132;-78
2023/03/11 16:00:21;;;;;;;2.30;0.35;;;16.40;53.60;;;;;;4808587;29;20050;-78
2023/03/11 16:02:48;;;;;;;2.72;0.30;;;16.40;53.50;;;;;;4808724;29;20135;-80
2023/03/11 16:05:20;;;;;;;3.13;0.38;;;16.40;54.40;;;;;;4808992;29;20178;-79
2023/03/11 16:07:46;;;;;;;5.40;0.75;;;16.40;54.80;;;;;;4789497;29;20130;-77
2023/03/11 16:10:15;;;;;;;7.28;0.47;;;16.40;55.40;;;;;;4808658;29;20366;-78
2023/03/11 16:12:41;;;;;;;16.98;1.75;;;16.50;55.90;;;;;;4807709;29;20054;-80
2023/03/11 16:15:20;;;;;;;15.50;1.17;;;16.40;56.80;;;;;;4806632;29;20082;-79
2023/03/11 16:17:48;;;;;;;15.50;1.60;;;16.40;56.90;;;;;;4807521;29;20046;-80
2023/03/11 16:20:19;;;;;;;10.70;1.58;;;16.40;56.90;;;;;;4792660;29;20142;-84
2023/03/11 16:22:46;;;;;;;8.45;1.02;;;16.50;56.80;;;;;;4808214;29;20049;-83
2023/03/11 16:25:33;;;;;;;17.70;1.60;;;16.50;56.80;;;;;;4808198;29;20562;-80
2023/03/11 16:28:00;;;;;;;15.30;1.63;;;16.50;56.90;;;;;;4806322;29;20386;-78
2023/03/11 16:30:28;;;;;;;16.42;2.08;;;16.50;57.00;;;;;;4814927;29;20067;-82
2023/03/11 16:33:00;;;;;;;22.20;2.33;;;16.50;57.00;;;;;;4826893;29;20362;-83
2023/03/11 16:35:26;;;;;;;18.08;2.38;;;16.50;57.40;;;;;;4825559;29;20042;-79
2023/03/11 16:37:52;;;;;;;16.80;1.75;;;16.50;57.90;;;;;;4820798;29;20481;-79
2023/03/11 16:40:24;;;;;;;10.18;1.30;;;16.50;57.90;;;;;;4826390;29;20050;-82
2023/03/11 16:42:50;;;;;;;13.45;1.73;;;16.50;57.90;;;;;;4826011;29;20046;-79
2023/03/11 16:45:17;;;;;;;14.32;1.75;;;16.40;57.90;;;;;;4825371;29;20038;-81
2023/03/11 16:50:53;;;;;;;20.90;2.25;;;16.40;58.70;;;;;;4791127;29;20073;-77
2023/03/11 16:53:19;;;;;;;21.45;2.25;;;16.40;58.40;;;;;;4825177;29;20070;-79
2023/03/11 16:55:45;;;;;;;18.17;2.22;;;16.30;58.40;;;;;;4818671;29;20386;-81
2023/03/11 16:58:30;;;;;;;17.00;2.13;;;16.30;58.50;;;;;;4818612;29;20089;-84
2023/03/11 17:01:30;;;;;;;26.95;2.42;;;16.30;58.60;;;;;;4826002;29;20044;-85
2023/03/11 17:04:32;;;;;;;20.60;2.25;;;16.30;58.40;;;;;;4825912;29;20373;-86
2023/03/11 17:07:06;;;;;;;24.58;2.90;;;16.20;58.60;;;;;;4836176;29;20054;-86
2023/03/11 17:09:37;;;;;;;16.55;2.58;;;16.30;58.60;;;;;;4810556;29;20095;-86
2023/03/11 17:12:22;;;;;;;19.42;2.13;;;16.20;58.80;;;;;;4809886;29;20046;-85
2023/03/11 17:14:48;;;;;;;20.63;2.28;;;16.20;59.20;;;;;;4825868;29;20038;-81
2023/03/11 17:18:01;;;;;;;26.38;4.35;;;16.30;59.30;;;;;;4825755;29;20050;-88
2023/03/11 17:25:02;;;;;;;;;;;16.30;60.20;;;;;;4778050;30;20495;-86
2023/03/11 17:47:12;;;;;;;23.17;3.22;;;16.40;60.60;;;;;;4754562;29;20078;-82
2023/03/11 17:49:38;;;;;;;20.50;2.17;;;16.40;60.70;;;;;;4824776;29;20522;-77
2023/03/11 17:52:04;;;;;;;16.15;2.53;;;16.40;60.80;;;;;;4824229;29;20038;-81
2023/03/11 17:54:47;;;;;;;20.85;2.80;;;16.40;60.70;;;;;;4810300;29;20078;-82
2023/03/11 17:57:17;;;;;;;27.17;3.03;;;16.30;60.50;;;;;;4808377;29;20046;-84
2023/03/11 17:59:43;;;;;;;21.17;2.13;;;16.30;60.60;;;;;;4808388;29;20050;-76
2023/03/11 18:02:21;;;;;;;18.05;2.25;;;16.30;60.80;;;;;;4824935;29;20053;-85
2023/03/11 18:05:17;;;;;;;25.80;3.40;;;16.30;60.80;;;;;;4809625;29;20043;-87
2023/03/11 18:07:43;;;;;;;16.20;1.83;;;16.20;60.90;;;;;;4797098;29;20046;-85
2023/03/11 18:10:10;;;;;;;18.23;2.42;;;16.10;60.70;;;;;;4798325;29;20137;-87
2023/03/11 18:12:36;;;;;;;22.88;3.05;;;16.10;60.60;;;;;;4797237;29;20042;-88
2023/03/11 18:15:04;;;;;;;15.70;2.08;;;16.10;60.50;;;;;;4797400;29;20129;-84
2023/03/11 18:17:30;;;;;;;13.52;1.85;;;16.10;60.30;;;;;;4797796;29;20061;-84
2023/03/11 18:19:59;;;;;;;12.93;1.83;;;16.00;60.10;;;;;;4812218;29;20438;-82
2023/03/11 18:22:25;;;;;;;11.60;1.50;;;16.00;60.00;;;;;;4782468;29;20061;-83
2023/03/11 18:24:51;;;;;;;10.68;1.90;;;15.90;59.90;;;;;;4797195;29;20050;-87
2023/03/11 18:27:17;;;;;;;12.35;1.40;;;15.90;59.80;;;;;;4789569;29;20140;-82
2023/03/11 18:29:42;;;;;;;15.10;1.98;;;15.80;59.70;;;;;;4797428;29;20049;-83
2023/03/11 18:32:09;;;;;;;10.27;1.15;;;15.80;59.60;;;;;;4827861;29;20462;-83
2023/03/11 18:34:34;;;;;;;15.90;2.10;;;15.80;59.50;;;;;;4802208;29;20478;-81
2023/03/11 18:37:00;;;;;;;10.63;1.42;;;15.80;59.40;;;;;;4778999;29;20147;-81
2023/03/11 18:39:26;;;;;;;11.50;1.38;;;15.70;59.30;;;;;;4778684;29;20058;-80
2023/03/11 18:41:52;;;;;;;6.90;1.23;;;15.70;59.30;;;;;;4779000;29;20074;-81
2023/03/11 18:44:17;;;;;;;10.70;1.98;;;15.70;59.30;;;;;;4793722;29;20112;-82
2023/03/11 18:46:43;;;;;;;10.80;1.77;;;15.70;59.10;;;;;;4809386;29;20047;-76
2023/03/11 18:49:11;;;;;;;8.35;1.40;;;15.70;59.10;;;;;;4793780;29;20051;-82
2023/03/11 18:51:37;;;;;;;6.50;1.30;;;15.60;59.00;;;;;;4808691;29;20107;-80
2023/03/11 18:54:03;;;;;;;11.15;1.08;;;15.60;59.00;;;;;;4809578;29;20054;-82
2023/03/11 18:56:32;;;;;;;11.02;1.63;;;15.60;59.00;;;;;;4809551;29;20062;-80
2023/03/11 18:59:00;;;;;;;6.95;1.13;;;15.60;59.00;;;;;;4793663;29;20112;-80
2023/03/11 19:01:27;;;;;;;5.75;1.35;;;15.50;59.00;;;;;;4793707;29;20058;-81
2023/03/11 19:03:55;;;;;;;7.03;1.23;;;15.50;59.30;;;;;;4794645;29;20089;-77
2023/03/11 19:06:21;;;;;;;10.18;1.50;;;15.50;59.40;;;;;;4827625;29;20475;-82
2023/03/11 19:08:47;;;;;;;10.88;1.88;;;15.40;59.60;;;;;;4811678;29;20053;-84
2023/03/11 19:11:19;;;;;;;6.18;1.27;;;15.40;59.90;;;;;;4780511;29;20478;-80
2023/03/11 19:14:13;;;;;;;11.23;1.08;;;15.40;60.30;;;;;;4779097;29;20127;-84
2023/03/11 19:16:52;;;;;;;5.95;1.58;;;15.40;61.20;;;;;;4794358;29;20123;-80
2023/03/11 19:19:18;;;;;;;6.30;1.70;;;15.30;60.50;;;;;;4809406;29;20400;-83
2023/03/11 19:21:44;;;;;;;6.95;1.45;;;15.40;62.00;;;;;;4793088;29;20167;-82
2023/03/11 19:24:13;;;;;;;5.15;1.02;;;15.30;62.10;;;;;;4809134;29;20138;-83
2023/03/11 19:26:39;;;;;;;7.30;1.83;;;15.30;61.80;;;;;;4809362;29;20134;-77
2023/03/11 19:29:06;;;;;;;4.53;0.90;;;15.30;62.10;;;;;;4809465;29;20093;-82
2023/03/11 19:31:35;;;;;;;5.50;1.38;;;15.30;62.00;;;;;;4808759;29;20475;-80
2023/03/11 19:34:04;;;;;;;3.80;1.23;;;15.30;62.10;;;;;;4802613;29;20054;-80
2023/03/11 19:36:30;;;;;;;6.07;1.38;;;15.20;61.90;;;;;;4827134;29;20051;-78
2023/03/11 19:38:56;;;;;;;6.93;1.20;;;15.20;61.90;;;;;;4825570;29;20050;-79
2023/03/11 19:41:50;;;;;;;3.65;0.95;;;15.20;61.80;;;;;;4793158;29;20171;-84
2023/03/11 19:47:36;;;;;;;9.27;2.10;;;15.20;61.80;;;;;;4777477;29;20062;-80
2023/03/11 19:50:02;;;;;;;9.23;1.42;;;15.20;61.60;;;;;;4813715;29;20054;-78